createdAt,value
2022-09-23T00:01:33.835Z,13.35
2022-09-23T00:04:02.469Z,12.75
2022-09-23T00:06:31.007Z,10.63
2022-09-23T00:09:00.698Z,14.57
2022-09-23T00:11:30.293Z,9.43
2022-09-23T00:14:01.043Z,10.35
2022-09-23T00:16:34.275Z,11.52
2022-09-23T00:19:04.202Z,13.32
2022-09-23T00:21:32.594Z,10.30
2022-09-23T00:24:03.338Z,12.13
2022-09-23T00:28:59.760Z,10.82
2022-09-23T00:31:28.956Z,9.80
2022-09-23T00:33:59.802Z,11.13
2022-09-23T00:36:29.954Z,10.82
2022-09-23T00:38:58.323Z,9.65
2022-09-23T00:41:29.082Z,10.95
2022-09-23T00:46:36.539Z,10.43
2022-09-23T00:49:11.383Z,9.32
2022-09-23T00:51:56.350Z,14.40
2022-09-23T00:54:28.081Z,10.27
2022-09-23T00:56:59.687Z,11.48
2022-09-23T00:59:29.108Z,9.90
2022-09-23T01:02:00.333Z,11.85
2022-09-23T01:04:31.091Z,9.43
2022-09-23T01:09:27.911Z,11.80
2022-09-23T01:12:10.130Z,13.68
2022-09-23T01:14:49.727Z,11.13
2022-09-23T01:17:27.417Z,9.98
2022-09-23T01:20:32.943Z,10.90
2022-09-23T01:23:23.387Z,12.10
2022-09-23T01:26:20.293Z,10.68
2022-09-23T01:29:18.932Z,11.68
2022-09-23T01:31:56.484Z,10.55
2022-09-23T01:34:32.447Z,12.07
2022-09-23T01:37:08.947Z,11.10
2022-09-23T01:39:43.245Z,11.07
2022-09-23T01:42:29.459Z,10.93
2022-09-23T01:45:01.339Z,13.40
2022-09-23T01:47:36.486Z,14.50
2022-09-23T01:50:29.185Z,12.60
2022-09-23T01:53:03.602Z,14.13
2022-09-23T01:55:37.841Z,15.70
2022-09-23T01:58:09.668Z,15.10
2022-09-23T02:00:42.806Z,13.00
2022-09-23T02:03:17.437Z,15.18
2022-09-23T02:05:50.091Z,14.68
2022-09-23T02:08:24.610Z,15.90
2022-09-23T02:10:56.905Z,12.93
2022-09-23T02:13:32.604Z,12.63
2022-09-23T02:16:09.621Z,14.25
2022-09-23T02:18:48.317Z,15.77
2022-09-23T02:21:17.793Z,12.75
2022-09-23T02:23:51.499Z,11.82
2022-09-23T02:26:24.815Z,12.75
2022-09-23T02:29:04.178Z,11.63
2022-09-23T02:31:39.032Z,11.77
2022-09-23T02:34:23.174Z,11.05
2022-09-23T02:37:07.531Z,12.93
2022-09-23T02:39:48.466Z,13.60
2022-09-23T02:42:21.992Z,13.85
2022-09-23T02:44:50.590Z,11.00
2022-09-23T02:47:24.982Z,13.73
2022-09-23T02:49:56.338Z,12.63
2022-09-23T02:52:25.436Z,12.10
2022-09-23T02:54:53.985Z,13.30
2022-09-23T02:57:22.332Z,11.02
2022-09-23T02:59:50.723Z,11.60
2022-09-23T03:02:55.966Z,12.38
2022-09-23T03:05:31.555Z,11.73
2022-09-23T03:08:25.770Z,12.20
2022-09-23T03:10:59.486Z,11.70
2022-09-23T03:13:36.587Z,11.60
2022-09-23T03:16:13.851Z,12.35
2022-09-23T03:18:47.794Z,15.25
2022-09-23T03:21:25.530Z,14.00
2022-09-23T03:23:57.142Z,12.10
2022-09-23T03:26:31.056Z,12.65
2022-09-23T03:29:04.401Z,11.98
2022-09-23T03:31:33.783Z,11.88
2022-09-23T03:34:06.694Z,12.30
2022-09-23T03:36:51.531Z,16.35
2022-09-23T03:39:31.531Z,12.85
2022-09-23T03:42:05.256Z,12.02
2022-09-23T03:44:39.321Z,13.05
2022-09-23T03:47:08.170Z,15.38
2022-09-23T03:49:39.616Z,12.25
2022-09-23T03:52:09.487Z,15.60
2022-09-23T03:54:37.736Z,13.10
2022-09-23T03:57:07.232Z,12.65
2022-09-23T03:59:35.563Z,11.65
2022-09-23T04:02:03.929Z,11.73
2022-09-23T04:04:34.335Z,11.50
2022-09-23T04:07:03.176Z,11.93
2022-09-23T04:09:33.054Z,12.82
2022-09-23T04:12:01.914Z,13.07
2022-09-23T04:14:30.634Z,15.00
2022-09-23T04:16:59.085Z,14.88
2022-09-23T04:19:27.439Z,11.60
2022-09-23T04:21:55.879Z,14.35
2022-09-23T04:24:24.235Z,11.95
2022-09-23T04:26:56.485Z,11.43
2022-09-23T04:29:26.679Z,12.02
2022-09-23T04:31:55.763Z,11.77
2022-09-23T04:34:24.128Z,11.77
2022-09-23T04:36:52.441Z,12.13
2022-09-23T04:39:21.114Z,13.05
2022-09-23T04:41:49.651Z,14.52
2022-09-23T04:44:20.265Z,18.45
2022-09-23T04:49:18.465Z,14.35
2022-09-23T04:51:47.929Z,15.55
2022-09-23T04:54:16.154Z,14.93
2022-09-23T04:56:44.466Z,11.63
2022-09-23T04:59:12.952Z,11.80
2022-09-23T05:01:43.102Z,19.00
2022-09-23T05:04:13.918Z,14.60
2022-09-23T05:09:17.392Z,16.40
2022-09-23T05:11:46.348Z,12.57
2022-09-23T05:14:14.743Z,16.02
2022-09-23T05:16:44.378Z,13.32
2022-09-23T05:19:13.479Z,15.82
2022-09-23T05:21:42.348Z,16.20
2022-09-23T05:24:10.823Z,19.20
2022-09-23T05:26:39.290Z,16.30
2022-09-23T05:29:07.872Z,17.30
2022-09-23T05:31:36.740Z,19.73
2022-09-23T05:34:07.655Z,14.23
2022-09-23T05:36:39.144Z,14.60
2022-09-23T05:39:08.998Z,12.50
2022-09-23T05:41:40.277Z,13.57
2022-09-23T05:44:08.615Z,13.30
2022-09-23T05:46:37.401Z,13.05
2022-09-23T05:49:07.673Z,15.60
2022-09-23T05:51:36.525Z,13.48
2022-09-23T05:54:06.250Z,19.48
2022-09-23T05:56:35.860Z,16.50
2022-09-23T05:59:05.980Z,20.38
2022-09-23T06:01:38.597Z,16.83
2022-09-23T06:04:14.049Z,23.00
2022-09-23T06:06:43.868Z,17.80
2022-09-23T06:09:15.557Z,16.50
2022-09-23T06:11:44.332Z,16.58
2022-09-23T06:14:14.923Z,17.35
2022-09-23T06:19:13.400Z,16.25
2022-09-23T06:21:41.980Z,18.58
2022-09-23T06:24:14.732Z,20.38
2022-09-23T06:26:45.143Z,18.30
2022-09-23T06:29:14.483Z,16.90
2022-09-23T06:31:43.463Z,16.08
2022-09-23T06:34:15.018Z,14.63
2022-09-23T06:36:45.938Z,19.90
2022-09-23T06:39:15.728Z,16.40
2022-09-23T06:41:44.700Z,14.93
2022-09-23T06:44:16.269Z,22.42
2022-09-23T06:46:44.806Z,20.55
2022-09-23T06:49:14.448Z,28.88
2022-09-23T06:51:42.875Z,22.23
2022-09-23T06:54:11.299Z,20.60
2022-09-23T06:56:40.123Z,24.00
2022-09-23T06:59:10.411Z,22.98
2022-09-23T07:01:39.217Z,27.23
2022-09-23T07:04:08.370Z,28.90
2022-09-23T07:06:38.193Z,28.00
2022-09-23T07:09:08.924Z,24.73
2022-09-23T07:11:37.804Z,34.30
2022-09-23T07:14:06.326Z,29.88
2022-09-23T07:16:34.684Z,24.75
2022-09-23T07:19:03.006Z,28.83
2022-09-23T07:21:31.412Z,22.35
2022-09-23T07:24:01.224Z,26.13
2022-09-23T07:26:29.630Z,25.50
2022-09-23T07:29:04.924Z,29.33
2022-09-23T07:31:39.733Z,22.05
2022-09-23T07:34:11.640Z,31.90
2022-09-23T07:36:41.577Z,25.33
2022-09-23T07:39:13.931Z,25.47
2022-09-23T07:41:44.379Z,27.58
2022-09-23T07:44:13.559Z,21.60
2022-09-23T07:46:41.903Z,21.45
2022-09-23T07:49:10.881Z,22.67
2022-09-23T07:51:41.949Z,24.63
2022-09-23T07:54:14.758Z,22.73
2022-09-23T07:56:44.186Z,19.08
2022-09-23T07:59:18.312Z,20.10
2022-09-23T08:01:49.457Z,19.15
2022-09-23T08:04:20.314Z,22.90
2022-09-23T08:06:52.124Z,18.70
2022-09-23T08:09:24.597Z,19.25
2022-09-23T08:11:53.563Z,24.15
2022-09-23T08:14:22.550Z,18.42
2022-09-23T08:16:52.273Z,19.13
2022-09-23T08:19:21.183Z,16.77
2022-09-23T08:21:52.087Z,17.10
2022-09-23T08:24:23.680Z,16.00
2022-09-23T08:26:54.308Z,18.73
2022-09-23T08:31:53.794Z,15.85
2022-09-23T08:34:23.830Z,16.73
2022-09-23T08:36:53.321Z,17.75
2022-09-23T08:39:23.869Z,13.45
2022-09-23T08:47:18.630Z,14.63
2022-09-23T08:49:57.213Z,15.18
2022-09-23T08:52:34.451Z,16.38
2022-09-23T08:55:06.087Z,16.27
2022-09-23T08:58:02.376Z,18.17
2022-09-23T09:00:42.552Z,15.45
2022-09-23T09:03:22.568Z,14.82
2022-09-23T09:05:54.432Z,14.25
2022-09-23T09:08:31.311Z,18.52
2022-09-23T09:11:01.811Z,14.95
2022-09-23T09:13:33.922Z,16.00
2022-09-23T09:16:41.838Z,15.45
2022-09-23T09:19:20.689Z,17.33
2022-09-23T09:21:52.481Z,15.00
2022-09-23T09:24:30.976Z,20.98
2022-09-23T09:27:01.828Z,19.05
2022-09-23T09:29:38.934Z,16.55
2022-09-23T09:32:21.099Z,21.85
2022-09-23T09:34:55.498Z,18.52
2022-09-23T09:37:31.706Z,16.17
2022-09-23T09:40:00.154Z,20.02
2022-09-23T09:42:40.404Z,14.15
2022-09-23T09:45:19.936Z,17.08
2022-09-23T09:47:56.823Z,15.23
2022-09-23T09:50:49.336Z,19.15
2022-09-23T09:53:25.802Z,16.40
2022-09-23T09:56:05.212Z,17.25
2022-09-23T09:58:41.636Z,17.85
2022-09-23T10:01:10.252Z,16.90
2022-09-23T10:03:44.562Z,17.17
2022-09-23T10:06:21.265Z,18.15
2022-09-23T10:09:16.987Z,16.10
2022-09-23T10:12:12.079Z,18.10
2022-09-23T10:14:41.853Z,19.90
2022-09-23T10:17:20.907Z,18.50
2022-09-23T10:19:52.015Z,15.65
2022-09-23T10:22:26.479Z,16.73
2022-09-23T10:24:58.039Z,17.63
2022-09-23T10:27:34.554Z,19.23
2022-09-23T10:30:08.396Z,17.15
2022-09-23T10:32:38.703Z,16.73
2022-09-23T10:35:20.967Z,15.20
2022-09-23T10:37:52.905Z,17.42
2022-09-23T10:40:48.337Z,17.15
2022-09-23T10:43:46.856Z,20.40
2022-09-23T10:46:41.502Z,17.48
2022-09-23T10:49:43.701Z,19.15
2022-09-23T10:52:32.047Z,15.63
2022-09-23T10:55:17.961Z,19.08
2022-09-23T10:58:10.357Z,17.13
2022-09-23T11:00:47.523Z,20.42
2022-09-23T11:04:01.260Z,19.63
2022-09-23T11:06:45.599Z,16.50
2022-09-23T11:09:30.299Z,21.20
2022-09-23T11:12:13.477Z,16.58
2022-09-23T11:15:20.909Z,18.60
2022-09-23T11:18:16.929Z,18.30
2022-09-23T11:20:55.644Z,18.23
2022-09-23T11:23:51.646Z,18.27
2022-09-23T11:26:35.209Z,17.92
2022-09-23T11:29:33.823Z,15.50
2022-09-23T11:32:24.975Z,12.60
2022-09-23T11:35:11.971Z,16.55
2022-09-23T11:37:45.946Z,15.63
2022-09-23T11:40:20.762Z,15.60
2022-09-23T11:42:56.363Z,14.00
2022-09-23T11:45:29.729Z,15.45
2022-09-23T11:48:02.461Z,15.43
2022-09-23T11:50:37.777Z,15.13
2022-09-23T11:53:17.166Z,14.45
2022-09-23T11:55:57.569Z,13.18
2022-09-23T11:58:32.279Z,16.63
2022-09-23T12:01:06.814Z,14.07
2022-09-23T12:03:45.806Z,14.27
2022-09-23T12:06:20.097Z,14.13
2022-09-23T12:08:57.558Z,13.50
2022-09-23T12:11:31.826Z,17.02
2022-09-23T12:14:15.028Z,13.02
2022-09-23T12:17:27.876Z,15.07
2022-09-23T12:20:27.862Z,11.93
2022-09-23T12:23:13.242Z,11.52
2022-09-23T12:25:47.971Z,11.85
2022-09-23T12:28:20.787Z,14.52
2022-09-23T12:30:53.028Z,17.05
2022-09-23T12:33:26.521Z,18.55
2022-09-23T12:35:57.388Z,20.13
2022-09-23T12:38:33.564Z,15.95
2022-09-23T12:41:18.687Z,13.15
2022-09-23T12:43:56.283Z,17.75
2022-09-23T12:46:27.433Z,13.43
2022-09-23T12:49:07.260Z,13.98
2022-09-23T12:51:36.983Z,12.65
2022-09-23T12:54:25.549Z,14.65
2022-09-23T12:57:15.011Z,14.93
2022-09-23T12:59:59.461Z,15.57
2022-09-23T13:02:36.313Z,16.50
2022-09-23T13:05:35.327Z,19.17
2022-09-23T13:08:09.875Z,15.90
2022-09-23T13:10:45.003Z,15.77
2022-09-23T13:13:24.336Z,15.75
2022-09-23T13:15:55.030Z,15.18
2022-09-23T13:18:59.583Z,14.52
2022-09-23T13:22:07.939Z,15.57
2022-09-23T13:24:45.627Z,12.88
2022-09-23T13:27:23.026Z,17.40
2022-09-23T13:29:59.618Z,17.67
2022-09-23T13:32:33.368Z,16.30
2022-09-23T13:35:05.510Z,15.85
2022-09-23T13:37:48.076Z,14.82
2022-09-23T13:40:24.465Z,15.30
2022-09-23T13:42:58.515Z,15.07
2022-09-23T13:45:31.000Z,16.38
2022-09-23T13:48:03.710Z,14.13
2022-09-23T13:50:35.023Z,17.20
2022-09-23T13:53:09.793Z,15.38
2022-09-23T13:55:41.290Z,16.20
2022-09-23T13:58:18.622Z,18.65
2022-09-23T14:00:49.517Z,18.65
2022-09-23T14:03:24.929Z,18.95
2022-09-23T14:05:54.333Z,18.55
2022-09-23T14:08:23.532Z,19.90
2022-09-23T14:10:53.634Z,21.67
2022-09-23T14:13:26.343Z,16.95
2022-09-23T14:15:59.774Z,17.25
2022-09-23T14:18:39.199Z,18.23
2022-09-23T14:21:27.495Z,17.00
2022-09-23T14:23:56.183Z,19.55
2022-09-23T14:26:26.201Z,18.58
2022-09-23T14:28:55.336Z,15.02
2022-09-23T14:31:25.255Z,20.15
2022-09-23T14:33:53.591Z,14.85
2022-09-23T14:36:40.074Z,16.05
2022-09-23T14:39:12.346Z,17.38
2022-09-23T14:41:45.188Z,17.52
2022-09-23T14:44:23.031Z,15.70
2022-09-23T14:47:00.845Z,18.50
2022-09-23T14:49:29.344Z,20.00
2022-09-23T14:52:01.571Z,17.27
2022-09-23T14:54:45.448Z,19.27
2022-09-23T14:57:28.093Z,16.85
2022-09-23T15:00:00.615Z,16.55
2022-09-23T15:02:36.631Z,17.75
2022-09-23T15:05:19.422Z,16.63
2022-09-23T15:07:50.964Z,19.10
2022-09-23T15:10:27.731Z,17.00
2022-09-23T15:13:04.251Z,19.48
2022-09-23T15:15:32.753Z,18.80
2022-09-23T15:18:08.365Z,18.45
2022-09-23T15:20:37.587Z,19.33
2022-09-23T15:23:05.853Z,15.27
2022-09-23T15:25:37.435Z,16.92
2022-09-23T15:28:23.597Z,13.35
2022-09-23T15:30:53.498Z,12.00
2022-09-23T15:33:27.933Z,12.65
2022-09-23T15:35:56.831Z,14.70
2022-09-23T15:38:27.236Z,15.38
2022-09-23T15:40:55.661Z,14.07
2022-09-23T15:43:26.961Z,12.52
2022-09-23T15:45:58.813Z,14.02
2022-09-23T15:48:32.528Z,12.70
2022-09-23T15:51:08.075Z,15.77
2022-09-23T15:53:37.165Z,13.98
2022-09-23T15:56:06.445Z,14.02
2022-09-23T15:58:34.938Z,13.13
2022-09-23T16:01:03.589Z,13.23
2022-09-23T16:03:33.392Z,13.38
2022-09-23T16:06:04.139Z,13.15
2022-09-23T16:11:01.655Z,13.20
2022-09-23T16:13:30.036Z,12.93
2022-09-23T16:15:58.329Z,13.30
2022-09-23T16:18:26.831Z,12.55
2022-09-23T16:20:57.693Z,12.75
2022-09-23T16:23:35.459Z,16.88
2022-09-23T16:26:07.581Z,13.05
2022-09-23T16:28:36.266Z,14.98
2022-09-23T16:31:04.680Z,13.57
2022-09-23T16:33:33.046Z,13.73
2022-09-23T16:36:03.379Z,11.05
2022-09-23T16:38:32.612Z,11.75
2022-09-23T16:41:01.128Z,10.48
2022-09-23T16:43:39.585Z,10.32
2022-09-23T16:46:08.962Z,11.43
2022-09-23T16:48:40.374Z,9.65
2022-09-23T16:51:16.019Z,10.32
2022-09-23T16:53:44.335Z,9.45
2022-09-23T16:56:13.232Z,9.52
2022-09-23T16:58:42.004Z,10.10
2022-09-23T17:01:35.480Z,15.05
2022-09-23T17:04:03.884Z,8.82
2022-09-23T17:06:33.672Z,11.95
2022-09-23T17:09:02.583Z,9.15
2022-09-23T17:11:34.138Z,9.55
2022-09-23T17:14:02.684Z,9.50
2022-09-23T17:16:33.127Z,11.65
2022-09-23T17:19:07.430Z,11.55
2022-09-23T17:21:37.356Z,12.85
2022-09-23T17:24:07.229Z,10.77
2022-09-23T17:26:36.200Z,13.68
2022-09-23T17:29:05.607Z,16.98
2022-09-23T17:31:34.327Z,17.60
2022-09-23T17:34:02.699Z,16.70
2022-09-23T17:36:31.189Z,16.35
2022-09-23T17:39:00.911Z,18.20
2022-09-23T17:41:29.742Z,18.47
2022-09-23T17:44:00.752Z,21.60
2022-09-23T17:46:30.913Z,19.98
2022-09-23T17:48:59.519Z,21.05
2022-09-23T17:51:27.957Z,22.10
2022-09-23T17:53:56.331Z,24.30
2022-09-23T17:56:29.796Z,24.80
2022-09-23T17:59:01.821Z,29.52
2022-09-23T18:01:30.910Z,24.10
2022-09-23T18:04:01.541Z,25.15
2022-09-23T18:09:04.204Z,24.08
2022-09-23T18:11:36.845Z,19.67
2022-09-23T18:14:07.488Z,20.50
2022-09-23T18:19:07.932Z,17.88
2022-09-23T18:21:40.792Z,17.15
2022-09-23T18:24:31.235Z,15.27
2022-09-23T18:27:00.574Z,15.10
2022-09-23T18:29:29.089Z,17.83
2022-09-23T18:31:59.224Z,13.82
2022-09-23T18:34:28.714Z,16.08
2022-09-23T18:36:57.179Z,14.13
2022-09-23T18:39:25.862Z,13.60
2022-09-23T18:41:54.917Z,17.63
2022-09-23T18:44:24.996Z,17.60
2022-09-23T18:46:53.340Z,14.75
2022-09-23T18:49:38.967Z,13.48
2022-09-23T18:52:07.283Z,14.90
2022-09-23T18:54:35.589Z,15.00
2022-09-23T18:57:04.052Z,12.18
2022-09-23T18:59:33.722Z,13.07
2022-09-23T19:02:02.250Z,11.43
2022-09-23T19:04:30.680Z,11.18
2022-09-23T19:06:59.061Z,11.05
2022-09-23T19:09:27.514Z,12.45
2022-09-23T19:11:55.841Z,10.73
2022-09-23T19:14:24.119Z,11.07
2022-09-23T19:16:54.374Z,11.75
2022-09-23T19:19:22.818Z,11.95
2022-09-23T19:21:51.800Z,10.05
2022-09-23T19:24:21.120Z,10.77
2022-09-23T19:26:50.365Z,9.10
2022-09-23T19:29:21.728Z,9.70
2022-09-23T19:31:51.014Z,10.48
2022-09-23T19:34:24.779Z,9.98
2022-09-23T19:36:55.889Z,9.68
2022-09-23T19:39:26.725Z,8.82
2022-09-23T19:41:56.564Z,10.05
2022-09-23T19:44:26.801Z,10.70
2022-09-23T19:46:57.108Z,9.68
2022-09-23T19:51:56.548Z,11.73
2022-09-23T19:54:27.479Z,9.57
2022-09-23T19:56:56.538Z,10.23
2022-09-23T19:59:26.215Z,9.95
2022-09-23T20:01:55.044Z,9.97
2022-09-23T20:04:23.458Z,11.05
2022-09-23T20:06:53.263Z,10.35
2022-09-23T20:09:21.995Z,11.50
2022-09-23T20:11:50.981Z,9.60
2022-09-23T20:14:19.841Z,10.10
2022-09-23T20:16:48.336Z,10.50
2022-09-23T20:19:16.615Z,10.07
2022-09-23T20:21:44.949Z,11.50
2022-09-23T20:24:14.598Z,11.43
2022-09-23T20:27:00.400Z,14.25
2022-09-23T20:29:28.855Z,15.00
2022-09-23T20:31:58.601Z,15.77
2022-09-23T20:34:27.334Z,14.88
2022-09-23T20:36:55.605Z,16.00
2022-09-23T20:39:25.239Z,16.88
2022-09-23T20:41:55.025Z,16.33
2022-09-23T20:44:23.401Z,19.97
2022-09-23T20:46:51.872Z,18.15
2022-09-23T20:49:20.861Z,18.67
2022-09-23T20:51:49.900Z,19.38
2022-09-23T20:54:19.227Z,20.45
2022-09-23T20:56:49.215Z,19.65
2022-09-23T20:59:17.867Z,19.77
2022-09-23T21:01:47.476Z,20.27
2022-09-23T21:04:16.453Z,19.77
2022-09-23T21:06:44.692Z,20.02
2022-09-23T21:09:13.146Z,20.83
2022-09-23T21:11:41.510Z,20.05
2022-09-23T21:14:11.310Z,21.02
2022-09-23T21:16:40.110Z,19.83
2022-09-23T21:19:09.077Z,20.00
2022-09-23T21:21:37.429Z,20.58
2022-09-23T21:24:43.791Z,21.15
2022-09-23T21:26:54.434Z,22.13
2022-09-23T21:29:24.123Z,22.42
2022-09-23T21:31:52.650Z,22.23
2022-09-23T21:34:21.020Z,23.85
2022-09-23T21:36:49.683Z,24.67
2022-09-23T21:39:17.984Z,26.02
2022-09-23T21:41:46.272Z,25.45
2022-09-23T21:44:14.524Z,26.60
2022-09-23T21:46:44.653Z,27.70
2022-09-23T21:49:13.259Z,26.45
2022-09-23T21:51:42.389Z,26.63
2022-09-23T21:54:15.602Z,26.13
2022-09-23T21:56:45.258Z,24.63
2022-09-23T21:59:13.703Z,24.50
2022-09-23T22:01:45.361Z,25.05
2022-09-23T22:04:18.047Z,23.75
2022-09-23T22:06:48.822Z,21.33
2022-09-23T22:09:19.474Z,21.38
2022-09-23T22:14:36.456Z,22.02
2022-09-23T22:17:10.539Z,20.90
2022-09-23T22:19:45.767Z,19.77
2022-09-23T22:22:18.405Z,19.17
2022-09-23T22:24:48.141Z,18.30
2022-09-23T22:27:19.120Z,18.43
2022-09-23T22:30:05.545Z,19.17
2022-09-23T22:32:52.822Z,20.17
2022-09-23T22:35:23.571Z,19.33
2022-09-23T22:37:51.856Z,19.17
2022-09-23T22:40:20.400Z,20.52
2022-09-23T22:42:49.704Z,20.50
2022-09-23T22:45:18.211Z,19.95
2022-09-23T22:47:48.158Z,17.13
2022-09-23T22:50:16.587Z,18.73
2022-09-23T22:52:44.847Z,18.27
2022-09-23T22:55:13.368Z,17.48
2022-09-23T22:57:41.883Z,20.38
2022-09-23T23:00:12.689Z,18.45
2022-09-23T23:02:42.435Z,17.95
2022-09-23T23:05:14.492Z,17.17
2022-09-23T23:07:42.785Z,16.13
2022-09-23T23:10:11.336Z,16.83
2022-09-23T23:12:40.411Z,17.05
2022-09-23T23:15:12.737Z,17.17
2022-09-23T23:17:43.599Z,17.30
2022-09-23T23:20:13.433Z,21.88
2022-09-23T23:22:41.714Z,17.97
2022-09-23T23:25:10.705Z,18.63
2022-09-23T23:27:39.073Z,18.13
2022-09-23T23:30:09.445Z,16.88
2022-09-23T23:32:37.748Z,17.67
2022-09-23T23:35:07.217Z,16.58
2022-09-23T23:37:37.002Z,17.80
2022-09-23T23:40:06.846Z,18.65
2022-09-23T23:42:35.213Z,19.92
2022-09-23T23:45:03.478Z,19.00
2022-09-23T23:47:32.166Z,18.20
2022-09-23T23:50:00.458Z,18.05
2022-09-23T23:52:28.697Z,18.65
2022-09-23T23:54:58.293Z,18.98
2022-09-23T23:57:26.523Z,20.60
2022-09-23T23:59:54.791Z,19.63
